createdAt,value
2018-06-01T00:00:59.756Z,93.97
2018-06-01T00:03:28.187Z,99.27
2018-06-01T00:05:56.533Z,86.60
2018-06-01T00:08:25.643Z,86.57
2018-06-01T00:10:54.820Z,84.37
2018-06-01T00:13:23.179Z,95.60
2018-06-01T00:15:51.541Z,85.33
2018-06-01T00:18:19.849Z,90.53
2018-06-01T00:20:48.179Z,91.47
2018-06-01T00:23:16.511Z,94.30
2018-06-01T00:25:44.826Z,102.53
2018-06-01T00:28:13.269Z,93.20
2018-06-01T00:30:43.158Z,92.50
2018-06-01T00:33:11.470Z,84.13
2018-06-01T00:35:40.695Z,89.03
2018-06-01T00:38:09.759Z,74.90
2018-06-01T00:40:38.898Z,80.70
2018-06-01T00:43:07.322Z,86.20
2018-06-01T00:45:35.784Z,73.30
2018-06-01T00:48:04.159Z,89.33
2018-06-01T00:50:32.820Z,69.80
2018-06-01T00:53:01.197Z,72.57
2018-06-01T00:55:29.607Z,71.13
2018-06-01T00:57:57.972Z,78.73
2018-06-01T01:00:26.450Z,82.13
2018-06-01T01:02:54.896Z,72.97
2018-06-01T01:05:24.046Z,80.80
2018-06-01T01:07:52.381Z,78.80
2018-06-01T01:10:21.485Z,67.47
2018-06-01T01:12:49.795Z,74.60
2018-06-01T01:15:18.234Z,67.70
2018-06-01T01:17:47.361Z,65.37
2018-06-01T01:20:15.708Z,68.03
2018-06-01T01:22:44.789Z,73.53
2018-06-01T01:25:13.892Z,64.13
2018-06-01T01:27:42.297Z,69.00
2018-06-01T01:30:10.875Z,62.60
2018-06-01T01:32:40.048Z,62.83
2018-06-01T01:35:09.889Z,68.00
2018-06-01T01:37:39.163Z,63.93
2018-06-01T01:40:07.505Z,83.97
2018-06-01T01:42:35.813Z,68.37
2018-06-01T01:45:05.633Z,70.17
2018-06-01T01:47:34.075Z,74.87
2018-06-01T01:50:02.408Z,80.07
2018-06-01T01:52:31.520Z,76.20
2018-06-01T01:55:00.601Z,74.57
2018-06-01T01:57:29.907Z,74.33
2018-06-01T01:59:59.108Z,68.93
2018-06-01T02:02:28.362Z,65.07
2018-06-01T02:04:56.694Z,65.33
2018-06-01T02:07:25.021Z,61.40
2018-06-01T02:09:53.422Z,54.77
2018-06-01T02:12:23.321Z,67.93
2018-06-01T02:14:52.453Z,63.53
2018-06-01T02:17:20.801Z,68.93
2018-06-01T02:19:49.436Z,66.43
2018-06-01T02:22:17.745Z,51.87
2018-06-01T02:24:46.100Z,57.63
2018-06-01T02:27:14.475Z,60.17
2018-06-01T02:29:42.820Z,57.73
2018-06-01T02:32:11.978Z,57.13
2018-06-01T02:34:40.371Z,56.57
2018-06-01T02:37:08.668Z,54.60
2018-06-01T02:39:37.865Z,48.87
2018-06-01T02:42:06.228Z,47.17
2018-06-01T02:44:34.657Z,45.90
2018-06-01T02:47:03.747Z,52.60
2018-06-01T02:49:32.927Z,62.20
2018-06-01T02:52:02.086Z,58.63
2018-06-01T02:54:30.506Z,84.27
2018-06-01T02:56:58.825Z,96.10
2018-06-01T02:59:27.176Z,74.23
2018-06-01T03:01:56.319Z,78.73
2018-06-01T03:04:24.639Z,59.97
2018-06-01T03:07:11.271Z,61.97
2018-06-01T03:09:39.658Z,60.03
2018-06-01T03:12:08.033Z,56.90
2018-06-01T03:14:36.460Z,61.60
2018-06-01T03:17:05.542Z,57.50
2018-06-01T03:19:33.877Z,55.20
2018-06-01T03:22:02.964Z,52.93
2018-06-01T03:24:32.180Z,65.00
2018-06-01T03:27:01.271Z,54.90
2018-06-01T03:29:30.457Z,54.27
2018-06-01T03:31:59.573Z,55.67
2018-06-01T03:34:28.003Z,54.43
2018-06-01T03:36:56.608Z,55.80
2018-06-01T03:39:24.948Z,65.03
2018-06-01T03:41:53.259Z,79.73
2018-06-01T03:44:23.195Z,71.50
2018-06-01T03:46:52.439Z,84.50
2018-06-01T03:49:20.824Z,68.87
2018-06-01T03:51:49.218Z,66.37
2018-06-01T03:54:17.543Z,69.20
2018-06-01T03:56:46.631Z,82.77
2018-06-01T03:59:15.120Z,75.50
2018-06-01T04:01:44.258Z,125.67
2018-06-01T04:04:13.389Z,89.80
2018-06-01T04:06:41.784Z,92.67
2018-06-01T04:09:10.969Z,117.20
2018-06-01T04:11:39.307Z,97.93
2018-06-01T04:14:07.635Z,78.30
2018-06-01T04:16:36.740Z,81.10
2018-06-01T04:19:05.994Z,98.37
2018-06-01T04:21:35.097Z,96.33
2018-06-01T04:24:03.499Z,76.47
2018-06-01T04:26:32.647Z,69.10
2018-06-01T04:29:00.986Z,64.13
2018-06-01T04:31:30.321Z,62.77
2018-06-01T04:33:58.670Z,59.97
2018-06-01T04:36:27.951Z,61.23
2018-06-01T04:38:56.347Z,69.53
2018-06-01T04:41:25.497Z,57.00
2018-06-01T04:43:53.905Z,67.97
2018-06-01T04:46:23.091Z,74.10
2018-06-01T04:48:51.555Z,62.40
2018-06-01T04:51:19.894Z,60.47
2018-06-01T04:53:49.083Z,45.23
2018-06-01T04:56:18.369Z,44.60
2018-06-01T04:58:46.671Z,38.93
2018-06-01T05:01:15.840Z,48.23
2018-06-01T05:03:44.205Z,45.53
2018-06-01T05:06:12.569Z,42.77
2018-06-01T05:08:40.931Z,36.23
2018-06-01T05:11:09.314Z,31.70
2018-06-01T05:13:37.647Z,36.63
2018-06-01T05:16:06.740Z,33.90
2018-06-01T05:18:35.900Z,35.60
2018-06-01T05:21:04.222Z,40.40
2018-06-01T05:23:33.305Z,43.77
2018-06-01T05:26:01.630Z,37.50
2018-06-01T05:28:29.986Z,39.83
2018-06-01T05:30:59.067Z,46.80
2018-06-01T05:33:28.313Z,41.20
2018-06-01T05:35:56.664Z,41.90
2018-06-01T05:38:25.849Z,31.17
2018-06-01T05:40:54.985Z,38.97
2018-06-01T05:43:23.374Z,34.07
2018-06-01T05:45:51.737Z,37.43
2018-06-01T05:48:20.087Z,63.80
2018-06-01T05:50:49.177Z,48.73
2018-06-01T05:53:18.285Z,50.93
2018-06-01T05:55:47.493Z,33.63
2018-06-01T05:58:15.849Z,16.57
2018-06-01T06:00:44.981Z,17.27
2018-06-01T06:03:14.129Z,14.53
2018-06-01T06:05:42.468Z,23.73
2018-06-01T06:08:10.874Z,25.40
2018-06-01T06:10:39.239Z,8.07
2018-06-01T06:13:07.624Z,130.27
2018-06-01T06:15:35.979Z,14.93
2018-06-01T06:18:04.361Z,17.57
2018-06-01T06:20:32.692Z,18.17
2018-06-01T06:23:01.120Z,18.03
2018-06-01T06:25:30.329Z,14.47
2018-06-01T06:27:59.719Z,16.80
2018-06-01T06:30:28.202Z,33.93
2018-06-01T06:32:57.600Z,19.43
2018-06-01T06:35:26.006Z,22.03
2018-06-01T06:37:54.353Z,17.60
2018-06-01T06:40:22.657Z,10.93
2018-06-01T06:42:51.900Z,13.60
2018-06-01T06:45:20.257Z,10.80
2018-06-01T06:47:48.638Z,11.13
2018-06-01T06:50:17.753Z,10.83
2018-06-01T06:52:46.986Z,13.37
2018-06-01T06:55:16.265Z,10.43
2018-06-01T06:57:44.851Z,13.63
2018-06-01T07:00:13.238Z,15.47
2018-06-01T07:02:42.400Z,8.20
2018-06-01T07:05:11.629Z,10.13
2018-06-01T07:07:40.797Z,11.30
2018-06-01T07:10:12.242Z,11.03
2018-06-01T07:12:40.676Z,15.03
2018-06-01T07:15:09.799Z,13.47
2018-06-01T07:17:38.264Z,11.30
2018-06-01T07:20:06.779Z,18.87
2018-06-01T07:22:35.234Z,10.30
2018-06-01T07:25:03.625Z,16.60
2018-06-01T07:27:33.190Z,13.60
2018-06-01T07:30:02.335Z,12.67
2018-06-01T07:32:30.733Z,20.10
2018-06-01T07:34:59.877Z,15.53
2018-06-01T07:37:28.305Z,25.10
2018-06-01T07:39:57.547Z,16.47
2018-06-01T07:42:26.089Z,22.37
2018-06-01T07:44:54.467Z,22.70
2018-06-01T07:47:22.878Z,20.10
2018-06-01T07:49:51.360Z,19.20
2018-06-01T07:52:20.631Z,16.63
2018-06-01T07:54:50.030Z,15.63
2018-06-01T07:57:18.437Z,26.40
2018-06-01T07:59:47.662Z,24.30
2018-06-01T08:02:16.067Z,17.80
2018-06-01T08:04:44.501Z,19.53
2018-06-01T08:07:12.914Z,20.10
2018-06-01T08:09:41.499Z,17.63
2018-06-01T08:12:09.982Z,17.00
2018-06-01T08:14:38.906Z,12.33
2018-06-01T08:17:09.025Z,11.53
2018-06-01T08:19:37.527Z,8.13
2018-06-01T08:22:05.893Z,15.43
2018-06-01T08:24:34.349Z,7.73
2018-06-01T08:27:02.765Z,9.70
2018-06-01T08:29:31.288Z,7.07
2018-06-01T08:31:59.644Z,6.13
2018-06-01T08:34:28.136Z,8.50
2018-06-01T08:36:56.621Z,7.67
2018-06-01T08:39:25.891Z,8.90
2018-06-01T08:41:55.353Z,6.40
2018-06-01T08:44:23.802Z,11.07
2018-06-01T08:46:52.238Z,5.50
2018-06-01T08:49:20.788Z,10.87
2018-06-01T08:51:49.193Z,7.13
2018-06-01T08:54:17.589Z,6.50
2018-06-01T08:56:46.057Z,10.33
2018-06-01T08:59:15.286Z,7.80
2018-06-01T09:01:44.462Z,5.70
2018-06-01T09:04:13.698Z,6.53
2018-06-01T09:06:42.958Z,7.47
2018-06-01T09:09:11.353Z,8.50
2018-06-01T09:11:40.660Z,5.90
2018-06-01T09:14:09.083Z,6.30
2018-06-01T09:16:38.221Z,5.70
2018-06-01T09:19:08.192Z,7.20
2018-06-01T09:21:36.696Z,7.57
2018-06-01T09:24:05.035Z,6.13
2018-06-01T09:26:34.158Z,7.17
2018-06-01T09:29:03.287Z,7.87
2018-06-01T09:31:31.817Z,7.10
2018-06-01T09:34:00.941Z,4.93
2018-06-01T09:36:29.363Z,8.40
2018-06-01T09:38:58.473Z,6.03
2018-06-01T09:41:26.867Z,6.00
2018-06-01T09:43:55.329Z,6.47
2018-06-01T09:46:23.834Z,9.07
2018-06-01T09:48:53.067Z,7.27
2018-06-01T09:51:21.413Z,11.20
2018-06-01T09:53:50.557Z,9.53
2018-06-01T09:56:18.921Z,10.67
2018-06-01T09:58:47.426Z,8.00
2018-06-01T10:01:15.830Z,7.17
2018-06-01T10:03:45.040Z,9.40
2018-06-01T10:06:13.469Z,7.67
2018-06-01T10:08:41.866Z,7.07
2018-06-01T10:11:10.236Z,7.60
2018-06-01T10:13:38.639Z,7.00
2018-06-01T10:16:07.133Z,7.10
2018-06-01T10:18:37.278Z,14.40
2018-06-01T10:21:05.612Z,8.77
2018-06-01T10:23:34.012Z,9.33
2018-06-01T10:26:02.457Z,8.83
2018-06-01T10:28:30.844Z,11.70
2018-06-01T10:30:59.344Z,12.00
2018-06-01T10:33:28.476Z,9.73
2018-06-01T10:35:57.823Z,12.37
2018-06-01T10:38:26.245Z,15.67
2018-06-01T10:40:55.514Z,10.23
2018-06-01T10:43:23.878Z,12.17
2018-06-01T10:45:52.263Z,9.60
2018-06-01T10:48:20.735Z,8.20
2018-06-01T10:50:49.874Z,12.60
2018-06-01T10:53:19.834Z,9.90
2018-06-01T10:55:48.439Z,8.83
2018-06-01T10:58:16.927Z,8.07
2018-06-01T11:00:46.125Z,10.77
2018-06-01T11:03:14.662Z,10.20
2018-06-01T11:05:43.976Z,9.53
2018-06-01T11:08:12.346Z,9.40
2018-06-01T11:10:41.481Z,7.90
2018-06-01T11:13:10.033Z,10.63
2018-06-01T11:15:38.657Z,8.40
2018-06-01T11:18:08.934Z,10.37
2018-06-01T11:20:38.106Z,14.10
2018-06-01T11:23:07.269Z,9.07
2018-06-01T11:25:36.842Z,9.67
2018-06-01T11:28:05.283Z,6.67
2018-06-01T11:30:34.148Z,12.67
2018-06-01T11:33:02.663Z,8.37
2018-06-01T11:35:31.039Z,10.60
2018-06-01T11:38:01.091Z,6.63
2018-06-01T11:40:30.291Z,8.37
2018-06-01T11:42:59.648Z,8.73
2018-06-01T11:45:28.964Z,6.03
2018-06-01T11:47:58.211Z,9.17
2018-06-01T11:50:27.540Z,5.87
2018-06-01T11:52:55.917Z,6.20
2018-06-01T11:55:24.342Z,6.30
2018-06-01T11:57:53.640Z,6.97
2018-06-01T12:00:22.781Z,6.13
2018-06-01T12:02:51.234Z,8.27
2018-06-01T12:05:20.365Z,4.87
2018-06-01T12:07:49.958Z,4.93
2018-06-01T12:10:18.404Z,5.53
2018-06-01T12:12:47.022Z,6.10
2018-06-01T12:15:15.415Z,4.37
2018-06-01T12:17:44.020Z,8.33
2018-06-01T12:20:12.394Z,9.23
2018-06-01T12:22:41.522Z,4.77
2018-06-01T12:25:10.984Z,4.37
2018-06-01T12:27:39.398Z,4.37
2018-06-01T12:30:08.629Z,4.10
2018-06-01T12:32:37.034Z,4.80
2018-06-01T12:35:05.512Z,4.60
2018-06-01T12:37:34.778Z,5.63
2018-06-01T12:40:03.864Z,3.47
2018-06-01T12:42:32.241Z,7.20
2018-06-01T12:45:01.503Z,6.20
2018-06-01T12:47:29.970Z,3.60
2018-06-01T12:49:58.431Z,3.90
2018-06-01T12:52:27.545Z,3.77
2018-06-01T12:54:56.749Z,4.03
2018-06-01T12:57:25.225Z,4.47
2018-06-01T12:59:53.641Z,7.00
2018-06-01T13:02:23.684Z,3.00
2018-06-01T13:04:52.325Z,3.30
2018-06-01T13:07:21.775Z,7.33
2018-06-01T13:09:50.166Z,2.20
2018-06-01T13:12:18.571Z,2.40
2018-06-01T13:14:47.146Z,4.20
2018-06-01T13:17:15.636Z,2.70
2018-06-01T13:19:44.991Z,2.63
2018-06-01T13:22:13.513Z,3.70
2018-06-01T13:24:42.655Z,2.70
2018-06-01T13:27:11.963Z,4.03
2018-06-01T13:29:40.504Z,7.93
2018-06-01T13:32:08.914Z,2.80
2018-06-01T13:34:37.779Z,6.23
2018-06-01T13:37:06.239Z,2.20
2018-06-01T13:39:36.413Z,1.80
2018-06-01T13:42:04.998Z,1.87
2018-06-01T13:44:34.452Z,7.77
2018-06-01T13:47:03.609Z,3.90
2018-06-01T13:49:32.005Z,5.17
2018-06-01T13:52:01.133Z,4.07
2018-06-01T13:54:30.264Z,3.43
2018-06-01T13:56:58.784Z,7.00
2018-06-01T13:59:27.420Z,3.47
2018-06-01T14:01:57.870Z,2.57
2018-06-01T14:04:26.285Z,1.93
2018-06-01T14:06:55.717Z,1.67
2018-06-01T14:09:25.041Z,3.00
2018-06-01T14:11:53.422Z,2.23
2018-06-01T14:14:22.774Z,2.47
2018-06-01T14:16:51.977Z,2.70
2018-06-01T14:19:21.362Z,2.57
2018-06-01T14:21:49.818Z,4.53
2018-06-01T14:24:19.136Z,2.70
2018-06-01T14:26:47.496Z,2.60
2018-06-01T14:29:15.854Z,3.30
2018-06-01T14:31:44.226Z,8.80
2018-06-01T14:34:12.663Z,3.67
2018-06-01T14:36:41.988Z,7.23
2018-06-01T14:39:11.338Z,2.10
2018-06-01T14:41:39.693Z,3.93
2018-06-01T14:44:08.032Z,6.73
2018-06-01T14:46:36.387Z,2.43
2018-06-01T14:49:04.831Z,3.53
2018-06-01T14:51:33.237Z,7.30
2018-06-01T14:54:01.641Z,2.97
2018-06-01T14:56:30.984Z,2.63
2018-06-01T14:58:59.387Z,5.77
2018-06-01T15:01:27.903Z,3.73
2018-06-01T15:03:56.272Z,3.47
2018-06-01T15:06:25.467Z,3.13
2018-06-01T15:08:53.972Z,3.50
2018-06-01T15:11:22.421Z,4.90
2018-06-01T15:13:51.016Z,4.27
2018-06-01T15:16:21.077Z,6.53
2018-06-01T15:18:50.245Z,2.90
2018-06-01T15:21:18.594Z,4.30
2018-06-01T15:23:47.133Z,3.73
2018-06-01T15:26:16.237Z,3.53
2018-06-01T15:28:44.591Z,3.90
2018-06-01T15:31:13.003Z,5.93
2018-06-01T15:33:41.354Z,2.33
2018-06-01T15:36:09.748Z,3.37
2018-06-01T15:38:38.949Z,11.67
2018-06-01T15:41:08.135Z,11.30
2018-06-01T15:43:36.542Z,3.30
2018-06-01T15:46:04.881Z,10.07
2018-06-01T15:48:33.335Z,5.03
2018-06-01T15:51:01.772Z,3.70
2018-06-01T15:53:30.107Z,4.10
2018-06-01T15:55:58.604Z,6.00
2018-06-01T15:58:27.734Z,3.60
2018-06-01T16:00:56.141Z,4.07
2018-06-01T16:03:25.301Z,4.57
2018-06-01T16:05:54.437Z,4.07
2018-06-01T16:08:23.563Z,4.50
2018-06-01T16:10:51.979Z,5.03
2018-06-01T16:13:21.168Z,3.27
2018-06-01T16:15:50.335Z,2.17
2018-06-01T16:18:18.751Z,2.57
2018-06-01T16:20:47.954Z,6.47
2018-06-01T16:23:17.079Z,2.10
2018-06-01T16:25:45.437Z,2.40
2018-06-01T16:28:14.610Z,2.13
2018-06-01T16:30:43.017Z,5.70
2018-06-01T16:33:11.381Z,2.10
2018-06-01T16:35:40.492Z,2.03
2018-06-01T16:38:08.870Z,1.60
2018-06-01T16:40:37.344Z,2.00
2018-06-01T16:43:06.527Z,1.87
2018-06-01T16:45:35.643Z,2.13
2018-06-01T16:48:04.064Z,3.50
2018-06-01T16:50:32.518Z,4.77
2018-06-01T16:53:01.666Z,2.43
2018-06-01T16:55:30.850Z,1.37
2018-06-01T16:58:00.032Z,1.20
2018-06-01T17:00:28.393Z,1.40
2018-06-01T17:02:56.765Z,1.00
2018-06-01T17:05:25.225Z,1.47
2018-06-01T17:07:54.459Z,1.57
2018-06-01T17:10:22.819Z,2.70
2018-06-01T17:12:51.969Z,1.70
2018-06-01T17:15:20.373Z,3.80
2018-06-01T17:17:49.517Z,1.60
2018-06-01T17:20:17.949Z,1.30
2018-06-01T17:22:46.377Z,3.97
2018-06-01T17:25:14.744Z,3.83
2018-06-01T17:27:43.204Z,1.73
2018-06-01T17:30:12.374Z,2.10
2018-06-01T17:32:40.786Z,2.50
2018-06-01T17:35:09.995Z,1.70
2018-06-01T17:37:38.350Z,1.43
2018-06-01T17:40:07.530Z,2.50
2018-06-01T17:42:35.945Z,1.70
2018-06-01T17:45:05.157Z,2.17
2018-06-01T17:47:34.351Z,1.80
2018-06-01T17:50:02.710Z,1.50
2018-06-01T17:52:31.864Z,1.67
2018-06-01T17:55:00.216Z,1.10
2018-06-01T17:57:29.417Z,2.30
2018-06-01T17:59:57.798Z,2.27
2018-06-01T18:02:26.871Z,1.53
2018-06-01T18:04:56.023Z,1.80
2018-06-01T18:07:24.392Z,1.57
2018-06-01T18:09:52.841Z,1.50
2018-06-01T18:12:21.993Z,2.00
2018-06-01T18:14:50.397Z,2.17
2018-06-01T18:17:19.619Z,2.07
2018-06-01T18:19:48.078Z,1.73
2018-06-01T18:22:16.481Z,5.67
2018-06-01T18:24:44.897Z,2.17
2018-06-01T18:27:13.364Z,1.73
2018-06-01T18:29:41.732Z,1.60
2018-06-01T18:32:10.124Z,1.80
2018-06-01T18:34:38.485Z,1.80
2018-06-01T18:37:07.562Z,2.70
2018-06-01T18:39:36.753Z,2.20
2018-06-01T18:42:05.951Z,4.00
2018-06-01T18:44:35.148Z,1.67
2018-06-01T18:47:04.267Z,3.37
2018-06-01T18:49:33.561Z,1.90
2018-06-01T18:52:02.157Z,4.60
2018-06-01T18:54:30.902Z,2.00
2018-06-01T18:56:59.462Z,6.80
2018-06-01T18:59:27.866Z,7.47
2018-06-01T19:01:57.076Z,2.83
2018-06-01T19:04:25.554Z,1.83
2018-06-01T19:06:53.990Z,2.00
2018-06-01T19:09:23.218Z,2.27
2018-06-01T19:11:51.702Z,3.03
2018-06-01T19:14:20.204Z,2.43
2018-06-01T19:16:49.543Z,6.07
2018-06-01T19:19:18.806Z,2.20
2018-06-01T19:21:47.229Z,2.77
2018-06-01T19:24:15.722Z,2.30
2018-06-01T19:26:44.102Z,2.67
2018-06-01T19:29:13.371Z,3.27
2018-06-01T19:31:41.673Z,3.43
2018-06-01T19:34:09.994Z,5.80
2018-06-01T19:36:38.268Z,6.70
2018-06-01T19:39:08.171Z,8.60
2018-06-01T19:41:36.470Z,8.17
2018-06-01T19:44:05.663Z,8.23
2018-06-01T19:46:35.120Z,6.27
2018-06-01T19:49:04.203Z,6.80
2018-06-01T19:51:33.287Z,8.90
2018-06-01T19:54:02.443Z,9.83
2018-06-01T19:56:30.762Z,7.13
2018-06-01T19:58:59.878Z,8.10
2018-06-01T20:01:28.237Z,11.20
2018-06-01T20:03:56.615Z,15.40
2018-06-01T20:06:25.717Z,20.43
2018-06-01T20:08:54.046Z,19.03
2018-06-01T20:11:22.481Z,21.20
2018-06-01T20:13:50.782Z,16.67
2018-06-01T20:16:19.864Z,15.80
2018-06-01T20:18:48.295Z,15.20
2018-06-01T20:21:17.461Z,20.43
2018-06-01T20:23:45.891Z,20.03
2018-06-01T20:26:15.157Z,21.53
2018-06-01T20:28:43.562Z,25.90
2018-06-01T20:31:12.749Z,22.67
2018-06-01T20:33:41.637Z,22.90
2018-06-01T20:36:10.641Z,27.53
2018-06-01T20:38:41.057Z,29.13
2018-06-01T20:41:09.714Z,26.83
2018-06-01T20:43:38.568Z,29.60
2018-06-01T20:46:08.427Z,29.27
2018-06-01T20:48:37.656Z,31.33
2018-06-01T20:51:08.396Z,28.70
2018-06-01T20:53:39.464Z,25.27
2018-06-01T20:56:09.119Z,28.07
2018-06-01T20:58:38.089Z,23.00
2018-06-01T21:01:06.721Z,21.00
2018-06-01T21:03:35.651Z,19.53
2018-06-01T21:06:04.592Z,22.00
2018-06-01T21:08:33.500Z,18.20
2018-06-01T21:11:02.471Z,25.77
2018-06-01T21:13:31.379Z,20.40
2018-06-01T21:16:01.041Z,21.30
2018-06-01T21:18:30.753Z,18.90
2018-06-01T21:21:03.339Z,18.67
2018-06-01T21:23:33.556Z,18.40
2018-06-01T21:26:02.302Z,18.60
2018-06-01T21:28:31.086Z,14.27
2018-06-01T21:31:02.224Z,13.70
2018-06-01T21:33:31.513Z,12.67
2018-06-01T21:35:59.927Z,9.03
2018-06-01T21:38:30.457Z,9.37
2018-06-01T21:41:00.978Z,7.50
2018-06-01T21:43:31.975Z,8.07
2018-06-01T21:46:01.823Z,6.20
2018-06-01T21:48:31.529Z,7.17
2018-06-01T21:51:00.805Z,7.63
2018-06-01T21:53:29.908Z,8.30
2018-06-01T21:56:01.622Z,10.17
2018-06-01T21:58:31.471Z,13.67
2018-06-01T22:01:02.401Z,14.10
2018-06-01T22:03:31.875Z,14.40
2018-06-01T22:06:03.234Z,12.83
2018-06-01T22:08:32.054Z,10.93
2018-06-01T22:11:01.820Z,10.77
2018-06-01T22:13:30.691Z,15.30
2018-06-01T22:16:00.617Z,11.63
2018-06-01T22:18:31.573Z,12.77
2018-06-01T22:21:01.275Z,18.07
2018-06-01T22:23:30.129Z,13.30
2018-06-01T22:25:58.954Z,11.03
2018-06-01T22:28:29.212Z,15.00
2018-06-01T22:30:58.484Z,10.77
2018-06-01T22:33:27.497Z,12.97
2018-06-01T22:35:56.865Z,12.37
2018-06-01T22:38:25.769Z,22.13
2018-06-01T22:40:55.874Z,15.30
2018-06-01T22:43:24.810Z,17.53
2018-06-01T22:45:53.724Z,25.00
2018-06-01T22:48:22.581Z,30.10
2018-06-01T22:50:51.467Z,38.03
2018-06-01T22:53:20.269Z,35.90
2018-06-01T22:55:49.996Z,39.70
2018-06-01T22:58:18.903Z,34.83
2018-06-01T23:00:48.369Z,33.63
2018-06-01T23:03:16.722Z,38.30
2018-06-01T23:05:45.852Z,41.60
2018-06-01T23:08:14.193Z,45.73
2018-06-01T23:10:43.303Z,33.23
2018-06-01T23:13:11.613Z,39.03
2018-06-01T23:15:39.955Z,47.10
2018-06-01T23:18:09.120Z,46.27
2018-06-01T23:20:37.555Z,49.30
2018-06-01T23:23:05.921Z,44.77
2018-06-01T23:25:34.239Z,41.53
2018-06-01T23:28:02.591Z,36.13
2018-06-01T23:30:31.187Z,33.47
2018-06-01T23:32:59.527Z,31.53
2018-06-01T23:35:28.635Z,31.50
2018-06-01T23:37:57.780Z,26.10
2018-06-01T23:40:26.087Z,32.07
2018-06-01T23:42:55.191Z,29.83
2018-06-01T23:45:23.600Z,34.13
2018-06-01T23:47:51.992Z,24.87
2018-06-01T23:50:20.410Z,27.13
2018-06-01T23:52:48.744Z,24.33
2018-06-01T23:55:17.071Z,27.13
2018-06-01T23:57:45.365Z,29.57
